Time;durP1;ratioP1;P1;durP2;ratioP2;P2;SDS_P1;SDS_P2;PMS_P1;PMS_P2;Temp;Humidity;BMP_temperature;BMP_pressure;BME280_temperature;BME280_humidity;BME280_pressure;Samples;Min_cycle;Max_cycle;Signal;HPM_P1;HPM_P2
2023/07/18 00:00:52;;;;;;;10.90;7.00;;;;;;;17.24;100.00;100769.56;105659;1259;60352;-44
2023/07/18 00:03:20;;;;;;;8.90;7.70;;;;;;;17.25;100.00;100769.86;105680;1254;74295;-44
2023/07/18 00:05:47;;;;;;;11.60;8.30;;;;;;;17.26;100.00;100768.09;105665;1257;64103;-46
2023/07/18 00:08:15;;;;;;;14.50;7.40;;;;;;;17.29;100.00;100763.58;105699;1254;70694;-44
2023/07/18 00:10:43;;;;;;;9.60;7.10;;;;;;;17.33;100.00;100757.32;105632;1254;60463;-44
2023/07/18 00:13:10;;;;;;;9.10;6.80;;;;;;;17.35;100.00;100747.84;105649;1259;60425;-44
2023/07/18 00:15:38;;;;;;;22.00;7.40;;;;;;;17.37;100.00;100750.55;105654;1259;73824;-45
2023/07/18 00:18:06;;;;;;;8.30;6.00;;;;;;;17.40;100.00;100745.35;105643;1254;65240;-44
2023/07/18 00:20:34;;;;;;;14.40;6.30;;;;;;;17.41;100.00;100742.87;105685;1258;71407;-45
2023/07/18 00:23:03;;;;;;;10.50;6.00;;;;;;;17.38;100.00;100742.80;105636;1254;60877;-45
2023/07/18 00:25:31;;;;;;;9.10;6.30;;;;;;;17.35;100.00;100740.52;105690;1254;60524;-45
2023/07/18 00:27:58;;;;;;;10.30;6.80;;;;;;;17.32;100.00;100741.00;105668;1254;72593;-44
2023/07/18 00:30:26;;;;;;;9.90;5.80;;;;;;;17.31;100.00;100740.17;105632;1254;64014;-45
2023/07/18 00:32:55;;;;;;;9.20;5.70;;;;;;;17.30;100.00;100740.57;105630;1258;72659;-45
2023/07/18 00:35:24;;;;;;;15.10;6.80;;;;;;;17.27;100.00;100741.52;105669;1259;60542;-46
2023/07/18 00:37:52;;;;;;;9.80;6.30;;;;;;;17.30;100.00;100738.11;105677;1254;60627;-46
2023/07/18 00:40:20;;;;;;;14.00;6.20;;;;;;;17.33;100.00;100735.55;105673;1258;72914;-46
2023/07/18 00:42:48;;;;;;;10.80;6.50;;;;;;;17.38;100.00;100726.77;105666;1260;64019;-46
2023/07/18 00:45:15;;;;;;;10.80;6.00;;;;;;;17.43;100.00;100720.30;105660;1257;71523;-43
2023/07/18 00:47:44;;;;;;;8.70;5.70;;;;;;;17.43;100.00;100719.06;105646;1260;60582;-44
2023/07/18 00:50:16;;;;;;;8.90;6.30;;;;;;;17.41;100.00;100716.38;105697;1254;60559;-44
2023/07/18 00:52:48;;;;;;;8.00;6.30;;;;;;;17.40;100.00;100714.66;105695;1259;73771;-44
2023/07/18 00:55:17;;;;;;;7.70;5.30;;;;;;;17.39;100.00;100715.92;105712;1259;65008;-44
2023/07/18 00:57:46;;;;;;;13.30;5.60;;;;;;;17.35;100.00;100717.84;105684;1257;71756;-44
2023/07/18 01:00:14;;;;;;;13.10;6.50;;;;;;;17.33;100.00;100717.20;105751;1257;60559;-45
2023/07/18 01:02:45;;;;;;;13.00;6.20;;;;;;;17.34;100.00;100712.80;105671;1254;60341;-44
2023/07/18 01:05:17;;;;;;;9.20;5.50;;;;;;;17.35;100.00;100710.15;105654;1258;73891;-44
2023/07/18 01:07:46;;;;;;;10.40;5.40;;;;;;;17.35;100.00;100709.80;105700;1254;64102;-44
2023/07/18 01:10:40;;;;;;;9.40;5.70;;;;;;;17.34;100.00;100708.98;105694;1257;72628;-44
2023/07/18 01:13:08;;;;;;;8.20;5.10;;;;;;;17.33;100.00;100703.45;105644;1257;60549;-44
2023/07/18 01:15:35;;;;;;;5.20;4.70;;;;;;;17.30;100.00;100702.70;105669;1258;60370;-44
2023/07/18 01:18:08;;;;;;;8.40;5.10;;;;;;;17.28;100.00;100698.06;105651;1256;73874;-44
2023/07/18 01:20:38;;;;;;;7.30;4.80;;;;;;;17.25;100.00;100694.36;105768;1259;63923;-43
2023/07/18 01:23:05;;;;;;;6.50;5.00;;;;;;;17.23;100.00;100697.41;105645;1257;71426;-44
2023/07/18 01:25:36;;;;;;;11.20;5.10;;;;;;;17.20;100.00;100698.25;105677;1257;60682;-44
2023/07/18 01:28:06;;;;;;;13.20;6.80;;;;;;;17.18;100.00;100693.42;105670;1254;60541;-44
2023/07/18 01:30:34;;;;;;;9.70;6.30;;;;;;;17.20;100.00;100689.16;105689;1258;73875;-44
2023/07/18 01:33:02;;;;;;;7.90;5.50;;;;;;;17.22;100.00;100684.87;105675;1254;64576;-44
2023/07/18 01:35:30;;;;;;;9.20;5.40;;;;;;;17.20;100.00;100683.91;105669;1254;70606;-44
2023/07/18 01:37:58;;;;;;;10.80;5.70;;;;;;;17.17;100.00;100678.84;105658;1254;60679;-44
2023/07/18 01:40:26;;;;;;;5.80;5.30;;;;;;;17.12;100.00;100678.02;105668;1259;60457;-43
2023/07/18 01:42:57;;;;;;;6.90;4.50;;;;;;;17.06;100.00;100676.15;105663;1254;71947;-44
2023/07/18 01:45:27;;;;;;;7.20;5.00;;;;;;;17.02;100.00;100671.63;105712;1258;63933;-44
2023/07/18 01:47:56;;;;;;;10.40;5.90;;;;;;;16.97;100.00;100670.23;105660;1257;71442;-44
2023/07/18 01:50:25;;;;;;;8.30;6.10;;;;;;;16.94;100.00;100670.48;105653;1260;60466;-45
2023/07/18 01:52:53;;;;;;;8.40;6.00;;;;;;;16.94;100.00;100671.05;105684;1258;60457;-44
2023/07/18 01:55:20;;;;;;;18.40;6.50;;;;;;;16.94;100.00;100670.52;105676;1254;72601;-45
2023/07/18 01:57:49;;;;;;;8.10;6.50;;;;;;;16.92;100.00;100673.73;105732;1259;63012;-43
2023/07/18 02:00:18;;;;;;;9.20;6.60;;;;;;;16.92;100.00;100674.78;105676;1257;71454;-45
2023/07/18 02:02:51;;;;;;;10.50;6.40;;;;;;;16.92;100.00;100672.52;105656;1254;62564;-44
2023/07/18 02:05:25;;;;;;;6.70;5.30;;;;;;;16.91;100.00;100672.88;105685;1259;60444;-44
2023/07/18 02:07:52;;;;;;;7.90;5.90;;;;;;;16.91;100.00;100669.60;105681;1254;72657;-44
2023/07/18 02:10:21;;;;;;;6.20;5.60;;;;;;;16.90;100.00;100667.54;105614;1254;63886;-45
2023/07/18 02:12:51;;;;;;;14.00;6.00;;;;;;;16.89;100.00;100668.46;105692;1254;72721;-45
2023/07/18 02:15:20;;;;;;;6.20;5.70;;;;;;;16.89;100.00;100666.70;105676;1257;62141;-44
2023/07/18 02:17:48;;;;;;;8.30;6.50;;;;;;;16.90;100.00;100666.48;105725;1259;60476;-44
2023/07/18 02:20:16;;;;;;;6.60;5.50;;;;;;;16.90;100.00;100666.66;105767;1254;72340;-44
2023/07/18 02:22:45;;;;;;;11.50;5.80;;;;;;;16.91;100.00;100662.25;105674;1254;65256;-44
2023/07/18 02:25:15;;;;;;;8.60;5.70;;;;;;;16.92;100.00;100660.48;105756;1254;71379;-46
2023/07/18 02:27:43;;;;;;;5.90;5.40;;;;;;;16.91;100.00;100664.52;105692;1254;61667;-46
2023/07/18 02:30:11;;;;;;;7.90;6.00;;;;;;;16.91;100.00;100666.08;105703;1256;60872;-45
2023/07/18 02:32:44;;;;;;;9.20;5.90;;;;;;;16.93;100.00;100668.13;105701;1254;73894;-44
2023/07/18 02:35:15;;;;;;;9.40;5.70;;;;;;;16.97;100.00;100665.70;105656;1258;63910;-44
2023/07/18 02:37:42;;;;;;;8.50;6.40;;;;;;;17.01;100.00;100662.05;105654;1254;72454;-44
2023/07/18 02:40:14;;;;;;;9.30;5.70;;;;;;;17.05;100.00;100659.80;105631;1259;60433;-45
2023/07/18 02:42:42;;;;;;;9.40;5.80;;;;;;;17.12;100.00;100660.05;105682;1254;60473;-45
2023/07/18 02:45:10;;;;;;;12.10;6.00;;;;;;;17.19;100.00;100659.72;105615;1254;73100;-44
2023/07/18 02:47:39;;;;;;;9.20;5.80;;;;;;;17.28;100.00;100658.67;105675;1259;65151;-45
2023/07/18 02:50:08;;;;;;;8.70;6.40;;;;;;;17.34;100.00;100658.05;105707;1259;72644;-44
2023/07/18 02:52:36;;;;;;;8.50;7.00;;;;;;;17.42;100.00;100658.92;105673;1256;61336;-45
2023/07/18 02:55:04;;;;;;;9.50;6.50;;;;;;;17.51;100.00;100658.52;105662;1254;61991;-46
2023/07/18 02:57:32;;;;;;;6.80;6.10;;;;;;;17.58;100.00;100656.63;105677;1254;71586;-44
2023/07/18 03:00:01;;;;;;;7.10;5.70;;;;;;;17.67;100.00;100660.66;105665;1254;65251;-44
2023/07/18 03:02:28;;;;;;;11.10;5.80;;;;;;;17.75;100.00;100663.06;105635;1259;71403;-44
2023/07/18 03:04:56;;;;;;;11.20;6.10;;;;;;;17.85;100.00;100654.77;105648;1255;60959;-45
2023/07/18 03:07:24;;;;;;;10.50;5.90;;;;;;;17.98;100.00;100650.33;105662;1259;60568;-44
2023/07/18 03:09:52;;;;;;;12.10;6.20;;;;;;;18.09;100.00;100650.53;105633;1254;72436;-44
2023/07/18 03:12:21;;;;;;;12.30;5.60;;;;;;;18.19;100.00;100653.02;105650;1254;63923;-43
2023/07/18 03:14:50;;;;;;;10.40;5.90;;;;;;;18.30;100.00;100647.98;105521;1257;72661;-43
2023/07/18 03:17:18;;;;;;;10.60;5.90;;;;;;;18.41;100.00;100645.02;105636;1257;60612;-44
2023/07/18 03:19:46;;;;;;;6.80;5.70;;;;;;;18.52;100.00;100646.24;105661;1258;60364;-44
2023/07/18 03:22:14;;;;;;;17.30;5.80;;;;;;;18.61;100.00;100644.07;105667;1257;74269;-44
2023/07/18 03:24:42;;;;;;;6.10;5.40;;;;;;;18.69;100.00;100643.15;105674;1259;64020;-43
2023/07/18 03:27:11;;;;;;;5.80;5.10;;;;;;;18.77;100.00;100638.05;105650;1257;71678;-43
2023/07/18 03:29:39;;;;;;;11.20;5.30;;;;;;;18.85;100.00;100639.91;105686;1257;60698;-45
2023/07/18 03:32:08;;;;;;;6.70;5.40;;;;;;;18.92;100.00;100640.58;105663;1255;60482;-45
2023/07/18 03:34:35;;;;;;;6.60;5.50;;;;;;;18.98;100.00;100643.83;105666;1254;72603;-45
2023/07/18 03:37:04;;;;;;;8.40;5.20;;;;;;;19.04;100.00;100648.27;105659;1262;63943;-45
2023/07/18 03:39:31;;;;;;;13.10;5.30;;;;;;;19.12;100.00;100648.04;105681;1259;71377;-45
2023/07/18 03:41:59;;;;;;;9.00;5.30;;;;;;;19.21;100.00;100647.75;105680;1257;60498;-45
2023/07/18 03:44:27;;;;;;;8.90;5.10;;;;;;;19.32;100.00;100650.85;105660;1259;60483;-45
2023/07/18 03:46:55;;;;;;;8.90;4.70;;;;;;;19.47;100.00;100658.85;105674;1254;72685;-45
2023/07/18 03:49:37;;;;;;;7.90;5.20;;;;;;;19.63;100.00;100666.59;105692;1259;63951;-45
2023/07/18 03:52:05;;;;;;;10.30;4.80;;;;;;;19.80;100.00;100678.64;105619;1254;72626;-44
2023/07/18 03:54:33;;;;;;;6.60;5.40;;;;;;;19.99;100.00;100686.71;105669;1257;60770;-44
2023/07/18 03:57:02;;;;;;;9.80;5.00;;;;;;;20.23;100.00;100699.15;105715;1254;60341;-45
2023/07/18 03:59:30;;;;;;;11.00;4.70;;;;;;;20.47;100.00;100713.39;105690;1254;74436;-45
2023/07/18 04:01:58;;;;;;;17.90;5.10;;;;;;;20.71;100.00;100736.40;105660;1254;65298;-44
2023/07/18 04:04:27;;;;;;;41.90;6.40;;;;;;;20.96;100.00;100763.44;105646;1257;71364;-46
2023/07/18 04:06:54;;;;;;;14.40;5.30;;;;;;;21.19;100.00;100807.59;105688;1255;61077;-45
2023/07/18 04:09:23;;;;;;;17.70;6.10;;;;;;;21.42;100.00;100871.38;105681;1254;60619;-45
2023/07/18 04:11:51;;;;;;;15.10;5.60;;;;;;;21.65;100.00;100944.91;105662;1254;72606;-45
2023/07/18 04:14:19;;;;;;;18.80;5.40;;;;;;;21.91;100.00;101013.34;105648;1259;65218;-45
2023/07/18 04:16:47;;;;;;;9.70;5.30;;;;;;;22.22;100.00;101066.52;105629;1257;72622;-45
2023/07/18 04:19:14;;;;;;;6.50;4.90;;;;;;;22.54;100.00;101121.30;105647;1259;60450;-45
2023/07/18 04:21:42;;;;;;;9.20;6.10;;;;;;;22.90;100.00;101150.01;105660;1259;60380;-45
2023/07/18 04:24:11;;;;;;;11.00;6.90;;;;;;;23.26;100.00;101168.81;105666;1254;72545;-46
2023/07/18 04:26:38;;;;;;;8.30;6.50;;;;;;;23.59;100.00;101129.66;105683;1259;63992;-45
2023/07/18 04:29:07;;;;;;;8.40;5.40;;;;;;;23.92;100.00;101033.84;105636;1254;72680;-46
2023/07/18 04:31:35;;;;;;;9.70;5.80;;;;;;;24.23;100.00;100891.00;105649;1259;60632;-45
2023/07/18 04:34:02;;;;;;;5.80;4.80;;;;;;;24.51;100.00;100714.09;105704;1259;60485;-46
2023/07/18 04:36:30;;;;;;;6.90;4.60;;;;;;;24.77;100.00;100532.47;105644;1259;73877;-45
2023/07/18 04:38:58;;;;;;;5.20;4.70;;;;;;;25.02;100.00;100347.17;105546;1259;64095;-44
2023/07/18 04:41:26;;;;;;;5.10;4.60;;;;;;;25.34;100.00;100235.40;105639;1258;72688;-45
2023/07/18 04:44:08;;;;;;;6.50;4.90;;;;;;;25.66;100.00;100120.05;105652;1260;60565;-44
2023/07/18 04:46:36;;;;;;;5.40;4.80;;;;;;;25.86;100.00;100071.34;105667;1254;60504;-44
2023/07/18 04:49:05;;;;;;;6.90;4.80;;;;;;;26.07;100.00;100071.75;105673;1254;72548;-43
2023/07/18 04:51:33;;;;;;;12.20;5.50;;;;;;;26.24;100.00;100086.38;105693;1254;64001;-43
2023/07/18 04:54:00;;;;;;;13.30;5.70;;;;;;;26.42;100.00;100103.64;105640;1259;72621;-45
2023/07/18 04:56:28;;;;;;;7.90;5.20;;;;;;;26.61;100.00;100158.20;105454;1255;60437;-44
2023/07/18 04:59:41;;;;;;;;;;;;;;;26.75;100.00;100246.63;102732;1291;599576;-44
2023/07/18 05:02:09;;;;;;;6.80;4.40;;;;;;;26.82;100.00;100308.98;104890;1267;59315;-45
2023/07/18 05:04:38;;;;;;;7.40;4.20;;;;;;;26.95;100.00;100341.86;104836;1266;59273;-44
2023/07/18 05:07:05;;;;;;;4.70;4.40;;;;;;;27.12;100.00;100344.83;104806;1266;71005;-45
2023/07/18 05:09:33;;;;;;;7.50;4.80;;;;;;;27.30;100.00;100354.11;104806;1267;64263;-44
2023/07/18 05:12:02;;;;;;;7.30;5.00;;;;;;;27.53;100.00;100368.95;104675;1273;71988;-43
2023/07/18 05:14:31;;;;;;;7.50;4.00;;;;;;;27.71;100.00;100385.89;104749;1266;230265;-43
2023/07/18 05:16:58;;;;;;;5.40;4.60;;;;;;;27.97;100.00;100384.36;104871;1265;59310;-44
2023/07/18 05:19:26;;;;;;;7.20;4.30;;;;;;;28.15;100.00;100396.93;104851;1264;70767;-44
2023/07/18 05:21:54;;;;;;;7.20;4.00;;;;;;;28.22;100.00;100423.58;104884;1264;64085;-46
2023/07/18 05:24:22;;;;;;;6.50;4.20;;;;;;;28.30;97.00;100410.09;104866;1266;71426;-45
2023/07/18 05:26:50;;;;;;;7.60;4.40;;;;;;;28.31;88.79;100412.30;104871;1264;59674;-46
2023/07/18 05:29:18;;;;;;;10.30;4.10;;;;;;;28.28;87.70;100429.99;104872;1266;59568;-46
2023/07/18 05:31:46;;;;;;;4.60;4.20;;;;;;;28.29;85.85;100428.76;104900;1270;73013;-44
2023/07/18 05:34:14;;;;;;;10.60;4.20;;;;;;;28.30;85.56;100440.77;104834;1264;63923;-44
2023/07/18 05:36:42;;;;;;;14.40;4.90;;;;;;;28.33;83.06;100432.91;104832;1264;72681;-44
2023/07/18 05:39:10;;;;;;;18.40;4.20;;;;;;;28.42;85.78;100450.29;104838;1263;59754;-44
2023/07/18 05:41:38;;;;;;;9.50;4.40;;;;;;;28.66;87.22;100454.29;104870;1270;59605;-44
2023/07/18 05:44:07;;;;;;;11.40;4.40;;;;;;;28.97;86.43;100443.31;104829;1269;72197;-45
2023/07/18 05:46:35;;;;;;;9.30;4.30;;;;;;;29.22;81.65;100432.37;104888;1270;64021;-45
2023/07/18 05:49:07;;;;;;;16.00;4.20;;;;;;;29.33;73.88;100376.05;104865;1270;71469;-44
2023/07/18 05:51:34;;;;;;;10.00;3.90;;;;;;;29.29;73.97;100406.54;104898;1264;60146;-44
2023/07/18 05:54:04;;;;;;;9.70;3.60;;;;;;;29.34;72.93;100400.16;104858;1270;59638;-44
2023/07/18 05:56:32;;;;;;;7.20;4.10;;;;;;;29.46;70.13;100373.00;104915;1264;71795;-45
2023/07/18 05:59:01;;;;;;;7.70;4.00;;;;;;;29.49;68.95;100370.23;104912;1270;65640;-46
2023/07/18 06:01:29;;;;;;;5.50;4.20;;;;;;;29.50;67.68;100359.15;104941;1266;71453;-46
2023/07/18 06:03:58;;;;;;;10.50;4.20;;;;;;;29.54;66.79;100355.52;105200;1261;59707;-45
2023/07/18 06:06:26;;;;;;;8.10;3.80;;;;;;;29.61;66.78;100365.86;105243;1262;59564;-45
2023/07/18 06:08:54;;;;;;;8.40;5.20;;;;;;;29.69;65.26;100343.25;105162;1266;75837;-44
2023/07/18 06:11:22;;;;;;;6.90;4.20;;;;;;;29.79;65.92;100371.52;105216;1261;64068;-45
2023/07/18 06:13:50;;;;;;;7.90;4.20;;;;;;;29.87;64.48;100335.17;105184;1262;72481;-46
2023/07/18 06:16:18;;;;;;;10.10;4.40;;;;;;;29.90;64.33;100345.88;105234;1266;59730;-46
2023/07/18 06:18:46;;;;;;;12.70;4.80;;;;;;;29.98;63.12;100316.83;105248;1260;59957;-45
2023/07/18 06:21:15;;;;;;;11.20;5.20;;;;;;;30.05;63.22;100332.31;105182;1267;73011;-45
2023/07/18 06:23:44;;;;;;;10.80;5.00;;;;;;;30.07;61.18;100281.52;105231;1267;65205;-45
2023/07/18 06:26:14;;;;;;;11.70;4.90;;;;;;;29.97;61.40;100299.42;105169;1262;71857;-45
2023/07/18 06:28:41;;;;;;;9.20;4.30;;;;;;;29.95;60.80;100298.64;105139;1262;60491;-45
2023/07/18 06:31:10;;;;;;;18.40;5.30;;;;;;;29.97;59.80;100269.20;105185;1263;59570;-46
2023/07/18 06:33:38;;;;;;;9.10;4.70;;;;;;;29.94;59.62;100270.59;105190;1267;71764;-46
2023/07/18 06:36:06;;;;;;;16.30;5.00;;;;;;;29.95;60.01;100292.36;105216;1260;64061;-47
2023/07/18 06:38:34;;;;;;;12.30;4.70;;;;;;;30.04;60.26;100300.52;105141;1260;72663;-48
2023/07/18 06:41:01;;;;;;;7.70;4.90;;;;;;;30.09;58.81;100246.70;105193;1262;59971;-46
2023/07/18 06:43:29;;;;;;;13.10;5.00;;;;;;;30.22;59.70;100286.30;105180;1267;59587;-45
2023/07/18 06:45:57;;;;;;;11.50;4.60;;;;;;;30.36;59.36;100268.02;105167;1260;71869;-45
2023/07/18 06:48:25;;;;;;;18.30;4.70;;;;;;;30.48;59.16;100276.58;105186;1262;64134;-46
2023/07/18 06:50:53;;;;;;;14.90;4.40;;;;;;;30.62;58.89;100258.73;105200;1261;72642;-46
2023/07/18 06:53:21;;;;;;;9.10;4.60;;;;;;;30.78;60.32;100311.07;105205;1262;60033;-46
2023/07/18 06:55:49;;;;;;;10.40;4.90;;;;;;;30.77;60.35;100308.63;105225;1263;59641;-47
2023/07/18 06:58:17;;;;;;;15.70;4.80;;;;;;;30.67;61.38;100337.29;105187;1261;72970;-47
2023/07/18 07:00:46;;;;;;;10.40;4.70;;;;;;;30.75;62.85;100362.42;105260;1262;64274;-47
2023/07/18 07:03:14;;;;;;;11.10;4.70;;;;;;;30.80;62.91;100358.52;105245;1262;72670;-46
2023/07/18 07:05:43;;;;;;;9.30;4.40;;;;;;;30.89;62.33;100339.60;105169;1264;59785;-47
2023/07/18 07:08:12;;;;;;;31.50;5.10;;;;;;;31.00;62.20;100327.44;105167;1261;59593;-45
2023/07/18 07:10:42;;;;;;;9.40;4.50;;;;;;;31.19;63.69;100359.77;105193;1263;72502;-47
2023/07/18 07:13:10;;;;;;;12.20;4.80;;;;;;;31.42;64.83;100373.55;105188;1261;65183;-45
2023/07/18 07:15:37;;;;;;;8.10;4.20;;;;;;;31.50;64.43;100359.50;105187;1267;72459;-45
2023/07/18 07:18:06;;;;;;;8.10;4.60;;;;;;;31.46;61.33;100292.17;105205;1267;60195;-45
2023/07/18 07:20:34;;;;;;;4.80;4.40;;;;;;;31.45;61.75;100309.08;105214;1265;59696;-48
2023/07/18 07:23:01;;;;;;;17.70;4.40;;;;;;;31.45;61.75;100314.89;108872;1260;73661;-45
2023/07/18 07:25:29;;;;;;;6.50;4.40;;;;;;;31.37;61.06;100299.39;108908;1260;65263;-47
2023/07/18 07:27:57;;;;;;;15.20;4.20;;;;;;;31.18;59.90;100274.30;108899;1261;72682;-45
2023/07/18 07:30:25;;;;;;;15.20;5.00;;;;;;;31.07;59.61;100272.85;108850;1260;60191;-46
2023/07/18 07:32:53;;;;;;;15.80;4.90;;;;;;;30.96;60.03;100298.98;108909;1260;59170;-45
2023/07/18 07:35:22;;;;;;;12.90;4.40;;;;;;;30.81;60.13;100312.14;108872;1260;72236;-47
2023/07/18 07:37:51;;;;;;;10.30;4.70;;;;;;;30.78;61.28;100343.23;108877;1260;63934;-46
2023/07/18 07:40:19;;;;;;;12.10;4.80;;;;;;;30.92;60.34;100309.32;108851;1260;72636;-46
2023/07/18 07:42:47;;;;;;;8.90;4.30;;;;;;;31.12;58.61;100240.52;108893;1260;60268;-46
2023/07/18 07:45:15;;;;;;;12.70;4.60;;;;;;;31.40;57.87;100226.57;108923;1260;60106;-45
2023/07/18 07:47:43;;;;;;;17.10;5.00;;;;;;;31.64;57.64;100222.42;108914;1260;73196;-48
2023/07/18 07:50:12;;;;;;;11.30;4.50;;;;;;;31.87;57.47;100219.36;108833;1260;65258;-45
2023/07/18 07:52:40;;;;;;;12.20;4.50;;;;;;;31.96;56.61;100190.19;108889;1260;72669;-47
2023/07/18 07:55:09;;;;;;;15.00;4.60;;;;;;;31.96;56.07;100182.37;108836;1260;60609;-44
2023/07/18 07:57:38;;;;;;;15.90;4.70;;;;;;;32.03;56.22;100197.91;108892;1263;58042;-46
2023/07/18 08:00:07;;;;;;;8.50;4.30;;;;;;;32.13;56.45;100215.79;108906;1260;73066;-47
2023/07/18 08:02:36;;;;;;;7.50;4.60;;;;;;;32.25;54.78;100131.73;108911;1260;64047;-47
2023/07/18 08:08:11;;;;;;;10.60;4.10;;;;;;;32.22;54.43;100147.60;102733;1292;600183;-44
2023/07/18 08:10:39;;;;;;;16.50;4.70;;;;;;;32.16;55.50;100210.81;105124;1264;59984;-46
2023/07/18 08:13:07;;;;;;;15.40;3.90;;;;;;;32.15;54.21;100140.37;105121;1266;59369;-47
2023/07/18 08:15:35;;;;;;;7.30;3.90;;;;;;;32.08;53.38;100100.27;105087;1265;71291;-47
2023/07/18 08:18:03;;;;;;;23.50;4.70;;;;;;;32.03;54.00;100154.73;105125;1264;64036;-45
2023/07/18 08:20:32;;;;;;;9.80;4.60;;;;;;;32.05;54.13;100170.20;105131;1266;71498;-46
2023/07/18 08:23:00;;;;;;;9.60;4.00;;;;;;;32.18;54.22;100171.08;105080;1265;224570;-46
2023/07/18 08:25:29;;;;;;;5.90;3.90;;;;;;;32.30;53.98;100147.02;105252;1262;59305;-47
2023/07/18 08:27:59;;;;;;;7.00;4.40;;;;;;;32.46;54.21;100159.27;105221;1263;71042;-47
2023/07/18 08:30:26;;;;;;;17.80;4.20;;;;;;;32.60;53.66;100118.09;105215;1264;64034;-46
2023/07/18 08:32:54;;;;;;;5.80;3.80;;;;;;;32.68;54.03;100141.73;105180;1263;71423;-47
2023/07/18 08:35:23;;;;;;;10.70;4.40;;;;;;;32.71;53.36;100101.09;105188;1266;59679;-47
2023/07/18 08:37:50;;;;;;;7.10;3.60;;;;;;;32.72;53.35;100109.91;105220;1265;59595;-46
2023/07/18 08:40:18;;;;;;;12.40;4.40;;;;;;;32.67;51.56;99986.00;105179;1264;71826;-45
2023/07/18 08:42:46;;;;;;;10.40;4.10;;;;;;;32.51;52.37;100070.69;105184;1262;64017;-47
2023/07/18 08:45:13;;;;;;;17.70;4.90;;;;;;;32.57;53.12;100134.88;105140;1263;71414;-45
2023/07/18 08:47:43;;;;;;;10.50;4.40;;;;;;;32.56;52.31;100074.64;105076;1263;59884;-49
2023/07/18 08:50:11;;;;;;;4.60;3.70;;;;;;;32.44;54.20;100202.06;105201;1266;59986;-46
2023/07/18 08:52:39;;;;;;;8.80;4.30;;;;;;;32.37;53.47;100140.70;105216;1263;73209;-46
2023/07/18 08:55:08;;;;;;;5.70;3.90;;;;;;;32.14;53.18;100136.39;105215;1264;63916;-45
2023/07/18 08:57:38;;;;;;;10.70;4.40;;;;;;;31.97;54.75;100229.30;105088;1269;71427;-44
2023/07/18 09:00:07;;;;;;;13.20;4.30;;;;;;;31.90;54.50;100208.91;105226;1267;60281;-47
2023/07/18 09:02:36;;;;;;;8.40;4.70;;;;;;;31.82;54.13;100179.63;105093;1268;59740;-46
2023/07/18 09:05:04;;;;;;;7.00;4.10;;;;;;;31.77;54.59;100203.20;105504;1256;72991;-45
2023/07/18 09:07:36;;;;;;;14.40;4.40;;;;;;;31.77;54.37;100186.05;105530;1257;63968;-46
2023/07/18 09:10:04;;;;;;;5.90;4.50;;;;;;;31.87;54.72;100197.82;105529;1259;71439;-47
2023/07/18 09:12:35;;;;;;;11.30;4.80;;;;;;;31.92;53.72;100141.71;105520;1260;59725;-48
2023/07/18 09:15:03;;;;;;;17.50;4.70;;;;;;;32.00;57.58;100302.79;105577;1256;59548;-46
2023/07/18 09:17:32;;;;;;;21.70;5.20;;;;;;;32.28;56.96;100248.80;105498;1257;71969;-45
2023/07/18 09:20:01;;;;;;;16.70;4.80;;;;;;;32.48;55.88;100191.02;105389;1263;67850;-46
2023/07/18 09:22:29;;;;;;;11.90;4.00;;;;;;;32.53;54.84;100138.17;105273;1256;72628;-45
2023/07/18 09:24:57;;;;;;;17.60;4.10;;;;;;;32.63;54.14;100101.82;105641;1261;59762;-48
2023/07/18 09:27:24;;;;;;;13.40;4.00;;;;;;;32.77;53.91;100096.29;105466;1262;60173;-47
2023/07/18 09:29:52;;;;;;;15.10;4.40;;;;;;;32.91;52.47;100005.31;105459;1262;70974;-45
2023/07/18 09:32:21;;;;;;;9.50;4.20;;;;;;;32.95;51.30;99932.84;105491;1257;65241;-46
2023/07/18 09:34:52;;;;;;;15.50;4.00;;;;;;;32.77;51.63;99985.06;105520;1260;71708;-45
2023/07/18 09:37:20;;;;;;;8.90;3.90;;;;;;;32.67;52.59;100070.85;105538;1259;59972;-46
2023/07/18 09:39:49;;;;;;;15.30;4.00;;;;;;;32.74;52.49;100057.89;105441;1257;59965;-47
2023/07/18 09:42:20;;;;;;;5.00;4.20;;;;;;;32.90;52.08;100025.27;105507;1257;72987;-49
2023/07/18 09:44:49;;;;;;;12.40;4.20;;;;;;;33.22;51.57;99989.73;105511;1257;63998;-48
2023/07/18 09:47:20;;;;;;;18.40;4.40;;;;;;;33.43;49.62;99829.63;105608;1259;72839;-47
2023/07/18 09:49:48;;;;;;;13.80;4.10;;;;;;;33.41;49.27;99820.92;105530;1260;59695;-47
2023/07/18 09:52:15;;;;;;;8.20;3.80;;;;;;;33.36;49.02;99807.73;105460;1257;59754;-47
2023/07/18 09:54:44;;;;;;;8.30;3.90;;;;;;;33.37;49.59;99872.36;105416;1256;71764;-47
2023/07/18 09:57:12;;;;;;;7.70;4.10;;;;;;;33.40;49.89;99906.64;105418;1257;64014;-47
2023/07/18 09:59:40;;;;;;;7.90;4.00;;;;;;;33.55;50.65;99980.45;105263;1264;72669;-46
2023/07/18 10:02:09;;;;;;;16.50;3.90;;;;;;;33.77;49.39;99848.98;105406;1256;59672;-46
2023/07/18 10:04:38;;;;;;;17.50;4.20;;;;;;;33.83;47.75;99711.94;105558;1258;59961;-48
2023/07/18 10:07:08;;;;;;;10.90;4.00;;;;;;;33.74;48.85;99809.02;105443;1258;71747;-47
2023/07/18 10:09:37;;;;;;;7.60;4.10;;;;;;;33.67;49.43;99886.35;105579;1259;64072;-46
2023/07/18 10:12:05;;;;;;;8.70;4.40;;;;;;;33.78;51.87;100090.09;105500;1259;71377;-46
2023/07/18 10:14:59;;;;;;;12.40;4.50;;;;;;;33.85;48.91;99815.90;105493;1259;59766;-45
2023/07/18 10:17:40;;;;;;;23.90;4.80;;;;;;;33.77;50.75;99969.52;105571;1262;59602;-45
2023/07/18 10:20:34;;;;;;;14.20;4.70;;;;;;;33.82;49.55;99890.75;105524;1256;71777;-46
2023/07/18 10:23:05;;;;;;;15.00;4.40;;;;;;;33.89;49.34;99876.39;105476;1260;66222;-46
2023/07/18 10:25:32;;;;;;;15.10;4.20;;;;;;;33.89;49.58;99883.79;105518;1258;71093;-46
2023/07/18 10:28:00;;;;;;;16.70;4.00;;;;;;;33.89;49.73;99895.89;105536;1260;59811;-47
2023/07/18 10:30:41;;;;;;;11.20;3.70;;;;;;;34.08;48.88;99827.90;105464;1258;60097;-44
2023/07/18 10:33:10;;;;;;;14.70;3.60;;;;;;;34.29;48.38;99766.84;105651;1258;71760;-49
2023/07/18 10:35:41;;;;;;;9.80;3.50;;;;;;;34.39;48.22;99767.20;105431;1262;65342;-46
2023/07/18 10:38:09;;;;;;;15.60;3.70;;;;;;;34.41;47.39;99694.06;105651;1259;72736;-47
2023/07/18 10:40:43;;;;;;;17.10;3.70;;;;;;;34.56;47.18;99657.68;105764;1259;60499;-45
2023/07/18 10:43:18;;;;;;;;;;;;;;;34.69;48.19;99775.48;105470;1262;59647;-48
2023/07/18 10:45:45;;;;;;;15.20;3.80;;;;;;;34.80;47.60;99691.92;105598;1262;72468;-47
2023/07/18 10:48:18;;;;;;;17.30;3.50;;;;;;;34.89;48.07;99753.52;105439;1262;63933;-46
2023/07/18 10:50:47;;;;;;;15.20;3.80;;;;;;;35.04;47.52;99706.85;105498;1257;72675;-47
2023/07/18 10:53:18;;;;;;;11.70;3.70;;;;;;;35.26;46.72;99605.48;105560;1257;59766;-46
2023/07/18 10:55:47;;;;;;;5.10;3.30;;;;;;;35.36;47.06;99622.50;105550;1256;60453;-45
2023/07/18 10:58:16;;;;;;;23.80;4.50;;;;;;;35.36;45.52;99497.06;105546;1262;73419;-47
2023/07/18 11:00:44;;;;;;;25.90;4.60;;;;;;;35.31;44.80;99420.20;105592;1257;63952;-46
2023/07/18 11:03:34;;;;;;;14.80;3.80;;;;;;;35.21;45.75;99535.89;105519;1259;71500;-48
2023/07/18 11:06:06;;;;;;;23.70;4.50;;;;;;;35.25;46.75;99655.16;105549;1260;59657;-47
2023/07/18 11:08:34;;;;;;;18.90;4.50;;;;;;;35.28;45.35;99511.66;105550;1262;59651;-50
2023/07/18 11:11:05;;;;;;;19.70;4.30;;;;;;;35.16;43.98;99361.14;105806;1256;71788;-49
2023/07/18 11:13:34;;;;;;;47.10;6.00;;;;;;;34.99;44.02;99358.58;105560;1258;63223;-46
2023/07/18 11:16:07;;;;;;;14.10;3.60;;;;;;;34.96;45.16;99497.55;105519;1257;71416;-48
2023/07/18 11:18:42;;;;;;;11.60;3.10;;;;;;;35.16;43.69;99340.41;105513;1262;60629;-48
2023/07/18 11:21:11;;;;;;;14.50;3.10;;;;;;;35.21;43.21;99276.67;105565;1257;60090;-46
2023/07/18 11:23:39;;;;;;;18.90;3.60;;;;;;;35.20;44.63;99425.88;105551;1257;72981;-46